sensor_id;sensor_type;location;lat;lon;timestamp;temperature;humidity
4687;DHT22;2357;47.316;-1.348;2023-12-20T00:00:57;9.20;99.90
4687;DHT22;2357;47.316;-1.348;2023-12-20T00:03:23;9.10;99.90
4687;DHT22;2357;47.316;-1.348;2023-12-20T00:05:49;9.10;99.90
4687;DHT22;2357;47.316;-1.348;2023-12-20T00:08:16;9.00;99.90
4687;DHT22;2357;47.316;-1.348;2023-12-20T00:10:41;8.90;99.90
4687;DHT22;2357;47.316;-1.348;2023-12-20T00:13:07;8.90;99.90
4687;DHT22;2357;47.316;-1.348;2023-12-20T00:15:33;8.90;99.90
4687;DHT22;2357;47.316;-1.348;2023-12-20T00:17:59;8.80;99.90
4687;DHT22;2357;47.316;-1.348;2023-12-20T00:20:25;8.90;99.90
4687;DHT22;2357;47.316;-1.348;2023-12-20T00:22:50;8.90;99.90
4687;DHT22;2357;47.316;-1.348;2023-12-20T00:25:16;8.70;99.90
4687;DHT22;2357;47.316;-1.348;2023-12-20T00:27:42;8.70;99.90
4687;DHT22;2357;47.316;-1.348;2023-12-20T00:30:08;8.60;99.90
4687;DHT22;2357;47.316;-1.348;2023-12-20T00:32:35;8.50;99.90
4687;DHT22;2357;47.316;-1.348;2023-12-20T00:35:00;8.50;99.90
4687;DHT22;2357;47.316;-1.348;2023-12-20T00:37:26;8.50;99.90
4687;DHT22;2357;47.316;-1.348;2023-12-20T00:39:52;8.50;99.90
4687;DHT22;2357;47.316;-1.348;2023-12-20T00:42:17;8.50;99.90
4687;DHT22;2357;47.316;-1.348;2023-12-20T00:44:43;8.50;99.90
4687;DHT22;2357;47.316;-1.348;2023-12-20T00:47:08;8.50;99.90
4687;DHT22;2357;47.316;-1.348;2023-12-20T00:49:34;8.40;99.90
4687;DHT22;2357;47.316;-1.348;2023-12-20T00:52:00;8.40;99.90
4687;DHT22;2357;47.316;-1.348;2023-12-20T00:54:25;8.30;99.90
4687;DHT22;2357;47.316;-1.348;2023-12-20T00:56:51;8.30;99.90
4687;DHT22;2357;47.316;-1.348;2023-12-20T00:59:17;8.10;99.90
4687;DHT22;2357;47.316;-1.348;2023-12-20T01:01:43;8.20;99.90
4687;DHT22;2357;47.316;-1.348;2023-12-20T01:04:09;8.00;99.90
4687;DHT22;2357;47.316;-1.348;2023-12-20T01:06:35;8.00;99.90
4687;DHT22;2357;47.316;-1.348;2023-12-20T01:09:01;8.00;99.90
4687;DHT22;2357;47.316;-1.348;2023-12-20T01:11:26;7.90;99.90
4687;DHT22;2357;47.316;-1.348;2023-12-20T01:13:52;7.90;99.90
4687;DHT22;2357;47.316;-1.348;2023-12-20T01:16:17;7.90;99.90
4687;DHT22;2357;47.316;-1.348;2023-12-20T01:18:43;7.90;99.90
4687;DHT22;2357;47.316;-1.348;2023-12-20T01:21:08;7.90;99.90
4687;DHT22;2357;47.316;-1.348;2023-12-20T01:23:34;7.80;99.90
4687;DHT22;2357;47.316;-1.348;2023-12-20T01:26:00;7.90;99.90
4687;DHT22;2357;47.316;-1.348;2023-12-20T01:28:26;7.80;99.90
4687;DHT22;2357;47.316;-1.348;2023-12-20T01:30:51;7.80;99.90
4687;DHT22;2357;47.316;-1.348;2023-12-20T01:33:18;7.70;99.90
4687;DHT22;2357;47.316;-1.348;2023-12-20T01:35:43;7.80;99.90
4687;DHT22;2357;47.316;-1.348;2023-12-20T01:38:09;7.70;99.90
4687;DHT22;2357;47.316;-1.348;2023-12-20T01:40:34;7.80;99.90
4687;DHT22;2357;47.316;-1.348;2023-12-20T01:43:01;7.80;99.90
4687;DHT22;2357;47.316;-1.348;2023-12-20T01:45:27;7.80;99.90
4687;DHT22;2357;47.316;-1.348;2023-12-20T01:47:54;7.70;99.90
4687;DHT22;2357;47.316;-1.348;2023-12-20T01:50:21;7.60;99.90
4687;DHT22;2357;47.316;-1.348;2023-12-20T01:52:47;7.50;99.90
4687;DHT22;2357;47.316;-1.348;2023-12-20T01:55:13;7.40;99.90
4687;DHT22;2357;47.316;-1.348;2023-12-20T01:57:44;7.40;99.90
4687;DHT22;2357;47.316;-1.348;2023-12-20T02:00:11;7.50;99.90
4687;DHT22;2357;47.316;-1.348;2023-12-20T02:02:39;7.40;99.90
4687;DHT22;2357;47.316;-1.348;2023-12-20T02:05:06;7.40;99.90
4687;DHT22;2357;47.316;-1.348;2023-12-20T02:07:32;7.40;99.90
4687;DHT22;2357;47.316;-1.348;2023-12-20T02:09:59;7.40;99.90
4687;DHT22;2357;47.316;-1.348;2023-12-20T02:12:25;7.40;99.90
4687;DHT22;2357;47.316;-1.348;2023-12-20T02:14:50;7.40;99.90
4687;DHT22;2357;47.316;-1.348;2023-12-20T02:17:16;7.30;99.90
4687;DHT22;2357;47.316;-1.348;2023-12-20T02:19:43;7.30;99.90
4687;DHT22;2357;47.316;-1.348;2023-12-20T02:22:09;7.20;99.90
4687;DHT22;2357;47.316;-1.348;2023-12-20T02:24:35;7.30;99.90
4687;DHT22;2357;47.316;-1.348;2023-12-20T02:27:01;7.20;99.90
4687;DHT22;2357;47.316;-1.348;2023-12-20T02:29:27;7.20;99.90
4687;DHT22;2357;47.316;-1.348;2023-12-20T02:31:52;7.20;99.90
4687;DHT22;2357;47.316;-1.348;2023-12-20T02:34:18;7.10;99.90
4687;DHT22;2357;47.316;-1.348;2023-12-20T02:36:43;7.10;99.90
4687;DHT22;2357;47.316;-1.348;2023-12-20T02:39:09;7.00;99.90
4687;DHT22;2357;47.316;-1.348;2023-12-20T02:41:35;7.10;99.90
4687;DHT22;2357;47.316;-1.348;2023-12-20T02:44:02;7.00;99.90
4687;DHT22;2357;47.316;-1.348;2023-12-20T02:46:28;7.00;99.90
4687;DHT22;2357;47.316;-1.348;2023-12-20T02:48:53;7.00;99.90
4687;DHT22;2357;47.316;-1.348;2023-12-20T02:51:19;7.00;99.90
4687;DHT22;2357;47.316;-1.348;2023-12-20T02:53:44;7.00;99.90
4687;DHT22;2357;47.316;-1.348;2023-12-20T02:56:10;7.00;99.90
4687;DHT22;2357;47.316;-1.348;2023-12-20T02:58:36;7.00;99.90
4687;DHT22;2357;47.316;-1.348;2023-12-20T03:01:01;7.00;99.90
4687;DHT22;2357;47.316;-1.348;2023-12-20T03:03:27;7.00;99.90
4687;DHT22;2357;47.316;-1.348;2023-12-20T03:05:53;7.00;99.90
4687;DHT22;2357;47.316;-1.348;2023-12-20T03:08:18;7.00;99.90
4687;DHT22;2357;47.316;-1.348;2023-12-20T03:10:44;7.00;99.90
4687;DHT22;2357;47.316;-1.348;2023-12-20T03:13:09;6.90;99.90
4687;DHT22;2357;47.316;-1.348;2023-12-20T03:15:35;6.90;99.90
4687;DHT22;2357;47.316;-1.348;2023-12-20T03:18:01;6.80;99.90
4687;DHT22;2357;47.316;-1.348;2023-12-20T03:20:27;6.80;99.90
4687;DHT22;2357;47.316;-1.348;2023-12-20T03:22:52;6.90;99.90
4687;DHT22;2357;47.316;-1.348;2023-12-20T03:25:18;7.00;99.90
4687;DHT22;2357;47.316;-1.348;2023-12-20T03:27:43;7.00;99.90
4687;DHT22;2357;47.316;-1.348;2023-12-20T03:30:09;7.00;99.90
4687;DHT22;2357;47.316;-1.348;2023-12-20T03:32:35;7.00;99.90
4687;DHT22;2357;47.316;-1.348;2023-12-20T03:35:01;6.90;99.90
4687;DHT22;2357;47.316;-1.348;2023-12-20T03:37:27;6.90;99.90
4687;DHT22;2357;47.316;-1.348;2023-12-20T03:39:53;6.90;99.90
4687;DHT22;2357;47.316;-1.348;2023-12-20T03:42:18;6.80;99.90
4687;DHT22;2357;47.316;-1.348;2023-12-20T03:44:44;6.80;99.90
4687;DHT22;2357;47.316;-1.348;2023-12-20T03:47:10;6.70;99.90
4687;DHT22;2357;47.316;-1.348;2023-12-20T03:49:35;6.70;99.90
4687;DHT22;2357;47.316;-1.348;2023-12-20T03:52:02;6.70;99.90
4687;DHT22;2357;47.316;-1.348;2023-12-20T03:54:28;6.70;99.90
4687;DHT22;2357;47.316;-1.348;2023-12-20T03:56:54;6.70;99.90
4687;DHT22;2357;47.316;-1.348;2023-12-20T03:59:20;6.70;99.90
4687;DHT22;2357;47.316;-1.348;2023-12-20T04:01:45;6.60;99.90
4687;DHT22;2357;47.316;-1.348;2023-12-20T04:04:11;6.60;99.90
4687;DHT22;2357;47.316;-1.348;2023-12-20T04:06:38;6.50;99.90
4687;DHT22;2357;47.316;-1.348;2023-12-20T04:09:03;6.50;99.90
4687;DHT22;2357;47.316;-1.348;2023-12-20T04:11:29;6.50;99.90
4687;DHT22;2357;47.316;-1.348;2023-12-20T04:13:55;6.40;99.90
4687;DHT22;2357;47.316;-1.348;2023-12-20T04:16:21;6.40;99.90
4687;DHT22;2357;47.316;-1.348;2023-12-20T04:18:46;6.40;99.90
4687;DHT22;2357;47.316;-1.348;2023-12-20T04:21:12;6.50;99.90
4687;DHT22;2357;47.316;-1.348;2023-12-20T04:23:37;6.40;99.90
4687;DHT22;2357;47.316;-1.348;2023-12-20T04:26:03;6.40;99.90
4687;DHT22;2357;47.316;-1.348;2023-12-20T04:28:29;6.40;99.90
4687;DHT22;2357;47.316;-1.348;2023-12-20T04:30:57;6.30;99.90
4687;DHT22;2357;47.316;-1.348;2023-12-20T04:33:23;6.30;99.90
4687;DHT22;2357;47.316;-1.348;2023-12-20T04:35:48;6.30;99.90
4687;DHT22;2357;47.316;-1.348;2023-12-20T04:38:14;6.30;99.90
4687;DHT22;2357;47.316;-1.348;2023-12-20T04:40:40;6.30;99.90
4687;DHT22;2357;47.316;-1.348;2023-12-20T04:43:07;6.30;99.90
4687;DHT22;2357;47.316;-1.348;2023-12-20T04:45:33;6.30;99.90
4687;DHT22;2357;47.316;-1.348;2023-12-20T04:47:58;6.30;99.90
4687;DHT22;2357;47.316;-1.348;2023-12-20T04:50:24;6.20;99.90
4687;DHT22;2357;47.316;-1.348;2023-12-20T04:52:50;6.20;99.90
4687;DHT22;2357;47.316;-1.348;2023-12-20T04:55:16;6.20;99.90
4687;DHT22;2357;47.316;-1.348;2023-12-20T04:57:41;6.30;99.90
4687;DHT22;2357;47.316;-1.348;2023-12-20T05:00:08;6.30;99.90
4687;DHT22;2357;47.316;-1.348;2023-12-20T05:02:35;6.30;99.90
4687;DHT22;2357;47.316;-1.348;2023-12-20T05:05:01;6.20;99.90
4687;DHT22;2357;47.316;-1.348;2023-12-20T05:07:26;6.20;99.90
4687;DHT22;2357;47.316;-1.348;2023-12-20T05:09:52;6.20;99.90
4687;DHT22;2357;47.316;-1.348;2023-12-20T05:12:18;6.20;99.90
4687;DHT22;2357;47.316;-1.348;2023-12-20T05:14:43;6.20;99.90
4687;DHT22;2357;47.316;-1.348;2023-12-20T05:17:09;6.10;99.90
4687;DHT22;2357;47.316;-1.348;2023-12-20T05:19:34;6.10;99.90
4687;DHT22;2357;47.316;-1.348;2023-12-20T05:22:01;6.10;99.90
4687;DHT22;2357;47.316;-1.348;2023-12-20T05:24:27;6.00;99.90
4687;DHT22;2357;47.316;-1.348;2023-12-20T05:26:53;5.90;99.90
4687;DHT22;2357;47.316;-1.348;2023-12-20T05:29:19;5.80;99.90
4687;DHT22;2357;47.316;-1.348;2023-12-20T05:31:44;5.90;99.90
4687;DHT22;2357;47.316;-1.348;2023-12-20T05:34:10;5.90;99.90
4687;DHT22;2357;47.316;-1.348;2023-12-20T05:36:36;5.90;99.90
4687;DHT22;2357;47.316;-1.348;2023-12-20T05:39:02;6.00;99.90
4687;DHT22;2357;47.316;-1.348;2023-12-20T05:41:29;6.00;99.90
4687;DHT22;2357;47.316;-1.348;2023-12-20T05:43:55;6.00;99.90
4687;DHT22;2357;47.316;-1.348;2023-12-20T05:46:20;6.00;99.90
4687;DHT22;2357;47.316;-1.348;2023-12-20T05:48:47;6.10;99.90
4687;DHT22;2357;47.316;-1.348;2023-12-20T05:51:12;6.00;99.90
4687;DHT22;2357;47.316;-1.348;2023-12-20T05:53:38;5.90;99.90
4687;DHT22;2357;47.316;-1.348;2023-12-20T05:56:04;5.90;99.90
4687;DHT22;2357;47.316;-1.348;2023-12-20T05:58:30;5.90;99.90
4687;DHT22;2357;47.316;-1.348;2023-12-20T06:00:55;5.80;99.90
4687;DHT22;2357;47.316;-1.348;2023-12-20T06:03:21;5.90;99.90
4687;DHT22;2357;47.316;-1.348;2023-12-20T06:05:46;5.80;99.90
4687;DHT22;2357;47.316;-1.348;2023-12-20T06:08:12;5.90;99.90
4687;DHT22;2357;47.316;-1.348;2023-12-20T06:10:38;5.90;99.90
4687;DHT22;2357;47.316;-1.348;2023-12-20T06:13:04;5.90;99.90
4687;DHT22;2357;47.316;-1.348;2023-12-20T06:15:32;5.90;99.90
4687;DHT22;2357;47.316;-1.348;2023-12-20T06:17:58;5.90;99.90
4687;DHT22;2357;47.316;-1.348;2023-12-20T06:20:23;6.00;99.90
4687;DHT22;2357;47.316;-1.348;2023-12-20T06:22:50;5.90;99.90
4687;DHT22;2357;47.316;-1.348;2023-12-20T06:25:16;5.90;99.90
4687;DHT22;2357;47.316;-1.348;2023-12-20T06:27:42;5.80;99.90
4687;DHT22;2357;47.316;-1.348;2023-12-20T06:30:08;5.80;99.90
4687;DHT22;2357;47.316;-1.348;2023-12-20T06:32:36;5.90;99.90
4687;DHT22;2357;47.316;-1.348;2023-12-20T06:35:03;5.90;99.90
4687;DHT22;2357;47.316;-1.348;2023-12-20T06:37:30;5.80;99.90
4687;DHT22;2357;47.316;-1.348;2023-12-20T06:39:55;5.80;99.90
4687;DHT22;2357;47.316;-1.348;2023-12-20T06:42:22;5.80;99.90
4687;DHT22;2357;47.316;-1.348;2023-12-20T06:44:48;5.80;99.90
4687;DHT22;2357;47.316;-1.348;2023-12-20T06:47:13;5.80;99.90
4687;DHT22;2357;47.316;-1.348;2023-12-20T06:49:40;5.80;99.90
4687;DHT22;2357;47.316;-1.348;2023-12-20T06:52:05;5.70;99.90
4687;DHT22;2357;47.316;-1.348;2023-12-20T06:54:31;5.80;99.90
4687;DHT22;2357;47.316;-1.348;2023-12-20T06:56:59;5.80;99.90
4687;DHT22;2357;47.316;-1.348;2023-12-20T06:59:25;5.80;99.90
4687;DHT22;2357;47.316;-1.348;2023-12-20T07:01:51;5.80;99.90
4687;DHT22;2357;47.316;-1.348;2023-12-20T07:04:17;5.80;99.90
4687;DHT22;2357;47.316;-1.348;2023-12-20T07:06:46;5.80;99.90
4687;DHT22;2357;47.316;-1.348;2023-12-20T07:09:12;5.80;99.90
4687;DHT22;2357;47.316;-1.348;2023-12-20T07:11:38;5.80;99.90
4687;DHT22;2357;47.316;-1.348;2023-12-20T07:14:04;5.70;99.90
4687;DHT22;2357;47.316;-1.348;2023-12-20T07:16:29;5.70;99.90
4687;DHT22;2357;47.316;-1.348;2023-12-20T07:18:55;5.80;99.90
4687;DHT22;2357;47.316;-1.348;2023-12-20T07:21:22;5.70;99.90
4687;DHT22;2357;47.316;-1.348;2023-12-20T07:23:48;5.70;99.90
4687;DHT22;2357;47.316;-1.348;2023-12-20T07:26:13;5.70;99.90
4687;DHT22;2357;47.316;-1.348;2023-12-20T07:28:39;5.70;99.90
4687;DHT22;2357;47.316;-1.348;2023-12-20T07:31:06;5.70;99.90
4687;DHT22;2357;47.316;-1.348;2023-12-20T07:33:31;5.70;99.90
4687;DHT22;2357;47.316;-1.348;2023-12-20T07:35:57;5.70;99.90
4687;DHT22;2357;47.316;-1.348;2023-12-20T07:38:24;5.70;99.90
4687;DHT22;2357;47.316;-1.348;2023-12-20T07:40:50;5.70;99.90
4687;DHT22;2357;47.316;-1.348;2023-12-20T07:43:15;5.60;99.90
4687;DHT22;2357;47.316;-1.348;2023-12-20T07:45:41;5.70;99.90
4687;DHT22;2357;47.316;-1.348;2023-12-20T07:48:07;5.70;99.90
4687;DHT22;2357;47.316;-1.348;2023-12-20T07:50:33;5.70;99.90
4687;DHT22;2357;47.316;-1.348;2023-12-20T07:52:58;5.70;99.90
4687;DHT22;2357;47.316;-1.348;2023-12-20T07:55:26;5.70;99.90
4687;DHT22;2357;47.316;-1.348;2023-12-20T07:57:52;5.70;99.90
4687;DHT22;2357;47.316;-1.348;2023-12-20T08:00:18;5.70;99.90
4687;DHT22;2357;47.316;-1.348;2023-12-20T08:02:44;5.70;99.90
4687;DHT22;2357;47.316;-1.348;2023-12-20T08:05:10;5.70;99.90
4687;DHT22;2357;47.316;-1.348;2023-12-20T08:07:36;5.70;99.90
4687;DHT22;2357;47.316;-1.348;2023-12-20T08:10:01;5.70;99.90
4687;DHT22;2357;47.316;-1.348;2023-12-20T08:12:27;5.80;99.90
4687;DHT22;2357;47.316;-1.348;2023-12-20T08:14:53;5.80;99.90
4687;DHT22;2357;47.316;-1.348;2023-12-20T08:17:19;5.80;99.90
4687;DHT22;2357;47.316;-1.348;2023-12-20T08:19:45;5.80;99.90
4687;DHT22;2357;47.316;-1.348;2023-12-20T08:22:11;5.90;99.90
4687;DHT22;2357;47.316;-1.348;2023-12-20T08:24:37;5.90;99.90
4687;DHT22;2357;47.316;-1.348;2023-12-20T08:27:04;6.00;99.90
4687;DHT22;2357;47.316;-1.348;2023-12-20T08:29:30;6.00;99.90
4687;DHT22;2357;47.316;-1.348;2023-12-20T08:31:55;6.10;99.90
4687;DHT22;2357;47.316;-1.348;2023-12-20T08:34:21;6.10;99.90
4687;DHT22;2357;47.316;-1.348;2023-12-20T08:36:47;6.20;99.90
4687;DHT22;2357;47.316;-1.348;2023-12-20T08:39:12;6.20;99.90
4687;DHT22;2357;47.316;-1.348;2023-12-20T08:41:38;6.30;99.90
4687;DHT22;2357;47.316;-1.348;2023-12-20T08:44:04;6.30;99.90
4687;DHT22;2357;47.316;-1.348;2023-12-20T08:46:29;6.30;99.90
4687;DHT22;2357;47.316;-1.348;2023-12-20T08:48:55;6.40;99.90
4687;DHT22;2357;47.316;-1.348;2023-12-20T08:51:21;6.40;99.90
4687;DHT22;2357;47.316;-1.348;2023-12-20T08:53:48;6.50;99.90
4687;DHT22;2357;47.316;-1.348;2023-12-20T08:56:14;6.60;99.90
4687;DHT22;2357;47.316;-1.348;2023-12-20T08:58:40;6.60;99.90
4687;DHT22;2357;47.316;-1.348;2023-12-20T09:01:06;6.70;99.90
4687;DHT22;2357;47.316;-1.348;2023-12-20T09:03:33;6.70;99.90
4687;DHT22;2357;47.316;-1.348;2023-12-20T09:05:58;6.80;99.90
4687;DHT22;2357;47.316;-1.348;2023-12-20T09:08:24;6.90;99.90
4687;DHT22;2357;47.316;-1.348;2023-12-20T09:10:49;6.90;99.90
4687;DHT22;2357;47.316;-1.348;2023-12-20T09:13:15;6.90;99.90
4687;DHT22;2357;47.316;-1.348;2023-12-20T09:15:40;7.00;99.90
4687;DHT22;2357;47.316;-1.348;2023-12-20T09:18:06;7.10;99.90
4687;DHT22;2357;47.316;-1.348;2023-12-20T09:20:32;7.20;99.90
4687;DHT22;2357;47.316;-1.348;2023-12-20T09:22:58;7.40;99.90
4687;DHT22;2357;47.316;-1.348;2023-12-20T09:25:24;7.50;99.90
4687;DHT22;2357;47.316;-1.348;2023-12-20T09:27:51;7.70;99.90
4687;DHT22;2357;47.316;-1.348;2023-12-20T09:30:18;7.80;99.90
4687;DHT22;2357;47.316;-1.348;2023-12-20T09:32:43;7.90;99.90
4687;DHT22;2357;47.316;-1.348;2023-12-20T09:35:09;8.00;99.90
4687;DHT22;2357;47.316;-1.348;2023-12-20T09:37:35;8.00;99.90
4687;DHT22;2357;47.316;-1.348;2023-12-20T09:40:00;8.00;99.90
4687;DHT22;2357;47.316;-1.348;2023-12-20T09:45:20;8.00;99.90
4687;DHT22;2357;47.316;-1.348;2023-12-20T09:47:55;8.00;99.90
4687;DHT22;2357;47.316;-1.348;2023-12-20T09:50:21;7.90;99.90
4687;DHT22;2357;47.316;-1.348;2023-12-20T09:52:52;7.80;99.90
4687;DHT22;2357;47.316;-1.348;2023-12-20T09:55:18;7.80;99.90
4687;DHT22;2357;47.316;-1.348;2023-12-20T09:57:45;7.70;99.90
4687;DHT22;2357;47.316;-1.348;2023-12-20T10:00:12;7.70;99.90
4687;DHT22;2357;47.316;-1.348;2023-12-20T10:02:50;7.70;99.90
4687;DHT22;2357;47.316;-1.348;2023-12-20T10:05:20;7.70;99.90
4687;DHT22;2357;47.316;-1.348;2023-12-20T10:07:51;7.80;99.90
4687;DHT22;2357;47.316;-1.348;2023-12-20T10:10:16;7.90;99.90
4687;DHT22;2357;47.316;-1.348;2023-12-20T10:13:01;8.00;99.90
4687;DHT22;2357;47.316;-1.348;2023-12-20T10:15:27;8.10;99.90
4687;DHT22;2357;47.316;-1.348;2023-12-20T10:17:52;8.20;99.90
4687;DHT22;2357;47.316;-1.348;2023-12-20T10:20:20;8.20;99.90
4687;DHT22;2357;47.316;-1.348;2023-12-20T10:22:45;8.30;99.90
4687;DHT22;2357;47.316;-1.348;2023-12-20T10:25:12;8.40;99.90
4687;DHT22;2357;47.316;-1.348;2023-12-20T10:27:37;8.50;99.90
4687;DHT22;2357;47.316;-1.348;2023-12-20T10:30:03;8.50;99.90
4687;DHT22;2357;47.316;-1.348;2023-12-20T10:32:31;8.60;99.90
4687;DHT22;2357;47.316;-1.348;2023-12-20T10:34:57;8.70;99.90
4687;DHT22;2357;47.316;-1.348;2023-12-20T10:37:23;8.70;99.90
4687;DHT22;2357;47.316;-1.348;2023-12-20T10:39:50;8.80;99.90
4687;DHT22;2357;47.316;-1.348;2023-12-20T10:42:18;8.80;99.90
4687;DHT22;2357;47.316;-1.348;2023-12-20T10:44:47;9.00;99.90
4687;DHT22;2357;47.316;-1.348;2023-12-20T10:47:15;9.10;99.90
4687;DHT22;2357;47.316;-1.348;2023-12-20T10:49:42;9.20;99.90
4687;DHT22;2357;47.316;-1.348;2023-12-20T10:52:08;9.50;99.90
4687;DHT22;2357;47.316;-1.348;2023-12-20T10:54:34;9.60;99.90
4687;DHT22;2357;47.316;-1.348;2023-12-20T10:57:01;9.70;99.90
4687;DHT22;2357;47.316;-1.348;2023-12-20T10:59:29;9.70;99.90
4687;DHT22;2357;47.316;-1.348;2023-12-20T11:01:59;9.70;99.90
4687;DHT22;2357;47.316;-1.348;2023-12-20T11:07:39;9.60;99.90
4687;DHT22;2357;47.316;-1.348;2023-12-20T11:10:21;9.70;99.90
4687;DHT22;2357;47.316;-1.348;2023-12-20T11:13:06;9.70;99.90
4687;DHT22;2357;47.316;-1.348;2023-12-20T11:15:36;9.70;99.90
4687;DHT22;2357;47.316;-1.348;2023-12-20T11:18:02;9.80;99.90
4687;DHT22;2357;47.316;-1.348;2023-12-20T11:20:39;10.00;99.90
4687;DHT22;2357;47.316;-1.348;2023-12-20T11:23:06;10.10;99.90
4687;DHT22;2357;47.316;-1.348;2023-12-20T11:28:13;10.30;99.90
4687;DHT22;2357;47.316;-1.348;2023-12-20T11:30:58;10.30;99.90
4687;DHT22;2357;47.316;-1.348;2023-12-20T11:33:31;10.20;99.90
4687;DHT22;2357;47.316;-1.348;2023-12-20T11:35:57;10.10;99.90
4687;DHT22;2357;47.316;-1.348;2023-12-20T11:38:24;10.10;99.90
4687;DHT22;2357;47.316;-1.348;2023-12-20T11:40:51;10.10;99.90
4687;DHT22;2357;47.316;-1.348;2023-12-20T11:43:38;10.00;99.90
4687;DHT22;2357;47.316;-1.348;2023-12-20T11:46:08;10.10;99.90
4687;DHT22;2357;47.316;-1.348;2023-12-20T11:48:38;10.20;99.90
4687;DHT22;2357;47.316;-1.348;2023-12-20T11:51:11;10.20;99.90
4687;DHT22;2357;47.316;-1.348;2023-12-20T11:53:41;10.20;99.90
4687;DHT22;2357;47.316;-1.348;2023-12-20T11:56:08;10.30;99.90
4687;DHT22;2357;47.316;-1.348;2023-12-20T11:58:34;10.30;99.90
4687;DHT22;2357;47.316;-1.348;2023-12-20T12:01:00;10.30;99.90
4687;DHT22;2357;47.316;-1.348;2023-12-20T12:03:27;10.50;99.90
4687;DHT22;2357;47.316;-1.348;2023-12-20T12:05:53;10.50;99.90
4687;DHT22;2357;47.316;-1.348;2023-12-20T12:08:19;10.80;99.90
4687;DHT22;2357;47.316;-1.348;2023-12-20T12:10:45;11.00;99.90
4687;DHT22;2357;47.316;-1.348;2023-12-20T12:13:10;11.10;99.90
4687;DHT22;2357;47.316;-1.348;2023-12-20T12:15:37;11.20;99.90
4687;DHT22;2357;47.316;-1.348;2023-12-20T12:18:03;11.10;99.90
4687;DHT22;2357;47.316;-1.348;2023-12-20T12:20:29;11.20;99.90
4687;DHT22;2357;47.316;-1.348;2023-12-20T12:25:25;11.20;99.90
4687;DHT22;2357;47.316;-1.348;2023-12-20T12:27:51;11.20;99.90
4687;DHT22;2357;47.316;-1.348;2023-12-20T12:30:16;11.20;99.90
4687;DHT22;2357;47.316;-1.348;2023-12-20T12:32:44;11.20;99.90
4687;DHT22;2357;47.316;-1.348;2023-12-20T12:35:10;11.10;99.90
4687;DHT22;2357;47.316;-1.348;2023-12-20T12:37:38;10.90;99.90
4687;DHT22;2357;47.316;-1.348;2023-12-20T12:40:10;10.90;99.90
4687;DHT22;2357;47.316;-1.348;2023-12-20T12:42:39;10.80;99.90
4687;DHT22;2357;47.316;-1.348;2023-12-20T12:45:05;10.80;99.90
4687;DHT22;2357;47.316;-1.348;2023-12-20T12:47:31;10.80;99.90
4687;DHT22;2357;47.316;-1.348;2023-12-20T12:49:57;10.70;99.90
4687;DHT22;2357;47.316;-1.348;2023-12-20T12:52:22;10.60;99.90
4687;DHT22;2357;47.316;-1.348;2023-12-20T12:54:48;10.70;99.90
4687;DHT22;2357;47.316;-1.348;2023-12-20T12:57:14;11.00;99.90
4687;DHT22;2357;47.316;-1.348;2023-12-20T12:59:42;11.20;99.90
4687;DHT22;2357;47.316;-1.348;2023-12-20T13:02:07;11.40;99.90
4687;DHT22;2357;47.316;-1.348;2023-12-20T13:04:33;11.50;99.90
4687;DHT22;2357;47.316;-1.348;2023-12-20T13:06:59;11.60;99.90
4687;DHT22;2357;47.316;-1.348;2023-12-20T13:09:25;12.00;99.90
4687;DHT22;2357;47.316;-1.348;2023-12-20T13:11:50;12.50;99.90
4687;DHT22;2357;47.316;-1.348;2023-12-20T13:14:16;13.20;99.90
4687;DHT22;2357;47.316;-1.348;2023-12-20T13:16:42;13.60;99.90
4687;DHT22;2357;47.316;-1.348;2023-12-20T13:19:08;14.00;99.90
4687;DHT22;2357;47.316;-1.348;2023-12-20T13:21:35;14.60;99.90
4687;DHT22;2357;47.316;-1.348;2023-12-20T13:24:01;14.90;99.90
4687;DHT22;2357;47.316;-1.348;2023-12-20T13:26:26;15.00;99.90
4687;DHT22;2357;47.316;-1.348;2023-12-20T13:28:52;14.60;99.90
4687;DHT22;2357;47.316;-1.348;2023-12-20T13:31:19;15.40;99.90
4687;DHT22;2357;47.316;-1.348;2023-12-20T13:33:45;13.80;99.90
4687;DHT22;2357;47.316;-1.348;2023-12-20T13:36:11;13.70;99.90
4687;DHT22;2357;47.316;-1.348;2023-12-20T13:38:36;13.30;99.90
4687;DHT22;2357;47.316;-1.348;2023-12-20T13:41:02;13.60;99.90
4687;DHT22;2357;47.316;-1.348;2023-12-20T13:43:28;12.80;99.90
4687;DHT22;2357;47.316;-1.348;2023-12-20T13:45:53;12.10;99.90
4687;DHT22;2357;47.316;-1.348;2023-12-20T13:48:19;12.00;99.90
4687;DHT22;2357;47.316;-1.348;2023-12-20T13:50:44;11.80;99.90
4687;DHT22;2357;47.316;-1.348;2023-12-20T13:53:10;12.00;99.90
4687;DHT22;2357;47.316;-1.348;2023-12-20T13:55:36;11.80;99.90
4687;DHT22;2357;47.316;-1.348;2023-12-20T13:58:02;11.70;99.90
4687;DHT22;2357;47.316;-1.348;2023-12-20T14:00:27;11.60;99.90
4687;DHT22;2357;47.316;-1.348;2023-12-20T14:02:53;11.60;99.90
4687;DHT22;2357;47.316;-1.348;2023-12-20T14:05:19;11.80;99.90
4687;DHT22;2357;47.316;-1.348;2023-12-20T14:07:45;11.70;99.90
4687;DHT22;2357;47.316;-1.348;2023-12-20T14:10:12;11.60;99.90
4687;DHT22;2357;47.316;-1.348;2023-12-20T14:12:38;11.50;99.90
4687;DHT22;2357;47.316;-1.348;2023-12-20T14:15:04;11.50;99.90
4687;DHT22;2357;47.316;-1.348;2023-12-20T14:17:34;11.40;99.90
4687;DHT22;2357;47.316;-1.348;2023-12-20T14:20:00;11.40;99.90
4687;DHT22;2357;47.316;-1.348;2023-12-20T14:22:26;11.40;99.90
4687;DHT22;2357;47.316;-1.348;2023-12-20T14:24:52;11.30;99.90
4687;DHT22;2357;47.316;-1.348;2023-12-20T14:27:17;11.30;99.90
4687;DHT22;2357;47.316;-1.348;2023-12-20T14:29:45;11.40;99.90
4687;DHT22;2357;47.316;-1.348;2023-12-20T14:32:11;11.40;99.90
4687;DHT22;2357;47.316;-1.348;2023-12-20T14:34:37;11.50;99.90
4687;DHT22;2357;47.316;-1.348;2023-12-20T14:37:03;11.70;99.90
4687;DHT22;2357;47.316;-1.348;2023-12-20T14:39:29;11.70;99.90
4687;DHT22;2357;47.316;-1.348;2023-12-20T14:41:54;11.80;99.90
4687;DHT22;2357;47.316;-1.348;2023-12-20T14:44:20;11.90;99.90
4687;DHT22;2357;47.316;-1.348;2023-12-20T14:46:47;11.80;99.90
4687;DHT22;2357;47.316;-1.348;2023-12-20T14:49:12;11.70;99.90
4687;DHT22;2357;47.316;-1.348;2023-12-20T14:51:39;11.60;99.90
4687;DHT22;2357;47.316;-1.348;2023-12-20T14:54:05;11.60;99.90
4687;DHT22;2357;47.316;-1.348;2023-12-20T14:56:35;11.60;99.90
4687;DHT22;2357;47.316;-1.348;2023-12-20T14:59:01;11.70;99.90
4687;DHT22;2357;47.316;-1.348;2023-12-20T15:01:26;11.50;99.90
4687;DHT22;2357;47.316;-1.348;2023-12-20T15:03:52;11.50;99.90
4687;DHT22;2357;47.316;-1.348;2023-12-20T15:06:18;11.50;99.90
4687;DHT22;2357;47.316;-1.348;2023-12-20T15:08:45;11.60;99.90
4687;DHT22;2357;47.316;-1.348;2023-12-20T15:11:11;11.50;99.90
4687;DHT22;2357;47.316;-1.348;2023-12-20T15:13:36;11.50;99.90
4687;DHT22;2357;47.316;-1.348;2023-12-20T15:16:03;11.40;99.90
4687;DHT22;2357;47.316;-1.348;2023-12-20T15:18:30;11.40;99.90
4687;DHT22;2357;47.316;-1.348;2023-12-20T15:20:57;11.40;99.90
4687;DHT22;2357;47.316;-1.348;2023-12-20T15:23:23;11.40;99.90
4687;DHT22;2357;47.316;-1.348;2023-12-20T15:25:51;11.40;99.90
4687;DHT22;2357;47.316;-1.348;2023-12-20T15:28:17;11.40;99.90
4687;DHT22;2357;47.316;-1.348;2023-12-20T15:30:43;11.30;99.90
4687;DHT22;2357;47.316;-1.348;2023-12-20T15:33:08;11.30;99.90
4687;DHT22;2357;47.316;-1.348;2023-12-20T15:35:34;11.20;99.90
4687;DHT22;2357;47.316;-1.348;2023-12-20T15:37:59;11.10;99.90
4687;DHT22;2357;47.316;-1.348;2023-12-20T15:40:25;11.10;99.90
4687;DHT22;2357;47.316;-1.348;2023-12-20T15:42:51;11.10;99.90
4687;DHT22;2357;47.316;-1.348;2023-12-20T15:45:16;11.10;99.90
4687;DHT22;2357;47.316;-1.348;2023-12-20T15:47:42;11.10;99.90
4687;DHT22;2357;47.316;-1.348;2023-12-20T15:50:08;11.00;99.90
4687;DHT22;2357;47.316;-1.348;2023-12-20T15:52:33;11.00;99.90
4687;DHT22;2357;47.316;-1.348;2023-12-20T15:54:59;11.00;99.90
4687;DHT22;2357;47.316;-1.348;2023-12-20T15:57:24;11.00;99.90
4687;DHT22;2357;47.316;-1.348;2023-12-20T15:59:50;11.00;99.90
4687;DHT22;2357;47.316;-1.348;2023-12-20T16:02:16;11.00;99.90